Time;durP1;ratioP1;P1;durP2;ratioP2;P2;SDS_P1;SDS_P2;PMS_P1;PMS_P2;Temp;Humidity;BMP_temperature;BMP_pressure;BME280_temperature;BME280_humidity;BME280_pressure;Samples;Min_cycle;Max_cycle;Signal;HPM_P1;HPM_P2
2023/12/18 00:03:45;;;;;;;7.25;1.42;;;;;;;-0.20;100.00;99777.53;10414357;28;20072;-64
2023/12/18 00:08:47;;;;;;;4.90;1.38;;;;;;;-0.21;100.00;99773.19;10421102;28;20034;-64
2023/12/18 00:13:50;;;;;;;2.88;1.33;;;;;;;-0.21;100.00;99768.63;10423236;28;20038;-63
2023/12/18 00:18:52;;;;;;;3.95;1.10;;;;;;;-0.22;100.00;99768.84;10433333;28;20037;-63
2023/12/18 00:23:54;;;;;;;2.33;1.05;;;;;;;-0.16;100.00;99765.25;10431377;28;20044;-64
2023/12/18 00:28:57;;;;;;;2.22;1.00;;;;;;;-0.13;100.00;99752.13;10437133;28;20539;-65
2023/12/18 00:33:59;;;;;;;5.28;1.75;;;;;;;-0.15;100.00;99742.63;10450193;28;20033;-65
2023/12/18 00:39:02;;;;;;;3.63;1.25;;;;;;;-0.10;100.00;99753.53;10447146;28;20045;-64
2023/12/18 00:44:04;;;;;;;4.40;1.30;;;;;;;-0.06;100.00;99754.69;10442473;28;20074;-65
2023/12/18 00:49:07;;;;;;;3.65;1.35;;;;;;;-0.02;100.00;99748.59;10444035;28;20523;-65
2023/12/18 00:54:09;;;;;;;6.25;2.17;;;;;;;0.01;100.00;99743.81;10445545;28;20043;-66
2023/12/18 00:59:12;;;;;;;1.85;1.10;;;;;;;-0.02;100.00;99737.78;10436616;28;20040;-64
2023/12/18 01:04:16;;;;;;;3.25;1.20;;;;;;;-0.02;100.00;99750.47;10443535;28;20065;-64
2023/12/18 01:09:18;;;;;;;4.80;1.42;;;;;;;-0.06;100.00;99757.38;10443728;28;20061;-66
2023/12/18 01:14:21;;;;;;;5.13;1.20;;;;;;;-0.08;100.00;99759.50;10443833;28;20037;-65
2023/12/18 01:19:24;;;;;;;3.58;1.35;;;;;;;-0.04;100.00;99771.44;10444210;28;20030;-64
2023/12/18 01:24:26;;;;;;;4.82;1.45;;;;;;;-0.02;100.00;99772.03;10429364;28;20049;-65
2023/12/18 01:29:29;;;;;;;3.80;1.30;;;;;;;-0.02;100.00;99758.56;10438640;28;20034;-64
2023/12/18 01:34:32;;;;;;;3.22;1.20;;;;;;;0.05;100.00;99759.28;10433729;28;20041;-65
2023/12/18 01:39:36;;;;;;;3.05;1.00;;;;;;;0.12;100.00;99759.16;10442889;28;20080;-64
2023/12/18 01:44:38;;;;;;;3.20;1.42;;;;;;;0.21;100.00;99746.97;10444257;28;20049;-65
2023/12/18 01:49:41;;;;;;;3.17;0.90;;;;;;;0.29;100.00;99742.03;10442694;28;20413;-65
2023/12/18 01:54:44;;;;;;;2.42;1.02;;;;;;;0.39;100.00;99749.53;10442369;28;20034;-65
2023/12/18 01:59:47;;;;;;;3.97;1.38;;;;;;;0.43;100.00;99752.56;10438787;28;20069;-65
2023/12/18 02:04:51;;;;;;;3.58;0.98;;;;;;;0.49;100.00;99749.75;10444388;28;20048;-65
2023/12/18 02:09:53;;;;;;;5.43;1.83;;;;;;;0.49;100.00;99752.44;10443759;28;20040;-65
2023/12/18 02:14:57;;;;;;;4.75;1.05;;;;;;;0.52;100.00;99741.19;10441578;28;20052;-64
2023/12/18 02:20:06;;;;;;;1.40;0.85;;;;;;;0.53;100.00;99739.31;10442369;28;20034;-65
2023/12/18 02:25:09;;;;;;;4.93;1.42;;;;;;;0.52;100.00;99734.94;10436336;28;20041;-64
2023/12/18 02:30:17;;;;;;;6.20;1.65;;;;;;;0.55;100.00;99739.88;10402649;28;20030;-65
2023/12/18 02:35:19;;;;;;;1.95;1.00;;;;;;;0.58;100.00;99732.13;10426218;28;20504;-65
2023/12/18 02:40:24;;;;;;;2.58;1.00;;;;;;;0.58;100.00;99736.72;10443384;28;20047;-65
2023/12/18 02:45:27;;;;;;;2.67;1.13;;;;;;;0.60;100.00;99737.28;10441591;28;20076;-64
2023/12/18 02:50:29;;;;;;;4.75;1.42;;;;;;;0.62;100.00;99737.88;10442181;28;20040;-64
2023/12/18 02:55:32;;;;;;;4.55;1.08;;;;;;;0.57;100.00;99725.09;10462641;28;20037;-66
2023/12/18 03:00:34;;;;;;;4.18;1.27;;;;;;;0.59;100.00;99743.75;10446274;28;20052;-65
2023/12/18 03:05:39;;;;;;;3.20;1.20;;;;;;;0.59;100.00;99735.66;10440197;28;20524;-65
2023/12/18 03:10:43;;;;;;;3.13;1.08;;;;;;;0.57;100.00;99745.88;10442305;28;20533;-64
2023/12/18 03:15:45;;;;;;;2.33;1.00;;;;;;;0.59;100.00;99743.75;10438413;28;20381;-65
2023/12/18 03:20:48;;;;;;;4.20;2.00;;;;;;;0.62;100.00;99742.44;10440992;28;20037;-65
2023/12/18 03:25:50;;;;;;;3.10;1.42;;;;;;;0.57;100.00;99751.25;10434994;28;20029;-66
2023/12/18 03:30:53;;;;;;;3.50;1.55;;;;;;;0.60;100.00;99750.78;10438738;28;20048;-65
2023/12/18 03:35:55;;;;;;;6.28;1.45;;;;;;;0.57;100.00;99748.56;10437609;28;20406;-64
2023/12/18 03:40:59;;;;;;;4.45;1.60;;;;;;;0.55;100.00;99748.00;10440028;28;20049;-66
2023/12/18 03:46:02;;;;;;;1.75;1.02;;;;;;;0.56;100.00;99746.94;10441291;28;20060;-65
2023/12/18 03:51:05;;;;;;;4.30;1.63;;;;;;;0.48;100.00;99756.19;10440553;28;20037;-65
2023/12/18 03:56:07;;;;;;;3.78;1.20;;;;;;;0.46;100.00;99755.63;10438586;28;20080;-65
2023/12/18 04:01:10;;;;;;;4.43;1.17;;;;;;;0.51;100.00;99746.78;10432543;28;20547;-66
2023/12/18 04:06:12;;;;;;;2.63;1.20;;;;;;;0.51;100.00;99752.19;10449958;28;20036;-66
2023/12/18 04:11:17;;;;;;;5.00;1.05;;;;;;;0.48;100.00;99756.19;10448355;28;20639;-66
2023/12/18 04:16:19;;;;;;;1.25;0.80;;;;;;;0.44;100.00;99771.22;10446783;28;20064;-65
2023/12/18 04:21:21;;;;;;;1.08;0.80;;;;;;;0.40;100.00;99766.53;10449027;28;20067;-65
2023/12/18 04:26:23;;;;;;;3.30;1.00;;;;;;;0.39;100.00;99765.72;10444231;28;20029;-65
2023/12/18 04:31:26;;;;;;;5.13;0.93;;;;;;;0.35;100.00;99747.53;10443174;28;20044;-65
2023/12/18 04:36:28;;;;;;;0.93;0.80;;;;;;;0.35;100.00;99753.78;10449897;28;20068;-65
2023/12/18 04:41:30;;;;;;;4.90;1.40;;;;;;;0.35;100.00;99758.31;10447873;28;20501;-65
2023/12/18 04:46:36;;;;;;;4.40;1.10;;;;;;;0.36;100.00;99759.97;10450281;28;20057;-65
2023/12/18 04:51:39;;;;;;;1.30;0.90;;;;;;;0.35;100.00;99764.56;10447837;28;20045;-65
2023/12/18 04:56:42;;;;;;;2.50;1.38;;;;;;;0.33;100.00;99765.81;10446405;28;20052;-65
2023/12/18 05:01:45;;;;;;;1.67;1.00;;;;;;;0.37;100.00;99770.53;10441799;28;20049;-66
2023/12/18 05:06:47;;;;;;;3.67;1.50;;;;;;;0.36;100.00;99774.28;10442842;28;20042;-65
2023/12/18 05:11:50;;;;;;;3.67;1.42;;;;;;;0.38;100.00;99757.88;10444849;28;20041;-65
2023/12/18 05:16:53;;;;;;;2.80;1.05;;;;;;;0.39;100.00;99767.59;10444487;28;20041;-65
2023/12/18 05:21:55;;;;;;;3.75;1.40;;;;;;;0.41;100.00;99763.59;10445653;28;20527;-66
2023/12/18 05:26:58;;;;;;;1.30;0.75;;;;;;;0.42;100.00;99757.16;10446866;28;20038;-65
2023/12/18 05:32:00;;;;;;;3.50;1.10;;;;;;;0.53;100.00;99774.41;10443762;28;20513;-65
2023/12/18 05:37:03;;;;;;;4.22;1.45;;;;;;;0.53;100.00;99777.09;10441818;28;20040;-65
2023/12/18 05:42:05;;;;;;;1.05;0.80;;;;;;;0.55;100.00;99783.06;10438803;28;20049;-65
2023/12/18 05:47:08;;;;;;;1.42;0.80;;;;;;;0.58;100.00;99786.13;10441987;28;20049;-65
2023/12/18 05:52:11;;;;;;;4.75;1.10;;;;;;;0.63;100.00;99781.88;10444886;28;20037;-65
2023/12/18 05:57:16;;;;;;;3.40;1.30;;;;;;;0.61;100.00;99768.63;10443136;28;20048;-65
2023/12/18 06:02:19;;;;;;;1.13;0.80;;;;;;;0.65;100.00;99774.38;10446882;28;20050;-65
2023/12/18 06:07:22;;;;;;;2.55;1.13;;;;;;;0.68;100.00;99790.09;10442574;28;20035;-65
2023/12/18 06:12:24;;;;;;;1.63;0.93;;;;;;;0.67;100.00;99791.13;10442638;28;20068;-65
2023/12/18 06:17:26;;;;;;;0.85;0.60;;;;;;;0.67;100.00;99797.38;10440334;28;20072;-65
2023/12/18 06:22:29;;;;;;;4.15;1.15;;;;;;;0.67;100.00;99818.97;10440471;28;20825;-65
2023/12/18 06:27:32;;;;;;;1.38;0.77;;;;;;;0.65;100.00;99822.97;10440346;28;20041;-65
2023/12/18 06:32:34;;;;;;;1.50;0.80;;;;;;;0.61;100.00;99822.63;10440760;28;20036;-65
2023/12/18 06:37:37;;;;;;;2.00;1.27;;;;;;;0.58;100.00;99820.41;10441068;28;20040;-65
2023/12/18 06:42:39;;;;;;;3.42;0.70;;;;;;;0.54;100.00;99821.94;10442073;28;20041;-65
2023/12/18 06:47:41;;;;;;;3.38;1.00;;;;;;;0.52;100.00;99835.66;10440995;28;20057;-66
2023/12/18 06:52:44;;;;;;;1.50;0.65;;;;;;;0.51;100.00;99846.66;10441169;28;20041;-66
2023/12/18 06:57:46;;;;;;;1.08;0.63;;;;;;;0.46;100.00;99847.38;10442507;28;20045;-66
2023/12/18 07:02:48;;;;;;;5.43;1.00;;;;;;;0.42;100.00;99850.78;10438739;28;20054;-66
2023/12/18 07:07:52;;;;;;;0.73;0.70;;;;;;;0.41;100.00;99838.34;10435551;28;20037;-66
2023/12/18 07:12:54;;;;;;;0.75;0.70;;;;;;;0.38;100.00;99834.25;10440170;28;20056;-66
2023/12/18 07:17:59;;;;;;;1.48;0.73;;;;;;;0.40;100.00;99836.72;10434076;28;20033;-66
2023/12/18 07:23:01;;;;;;;2.45;0.70;;;;;;;0.38;100.00;99852.31;10441745;28;20041;-66
2023/12/18 07:28:09;;;;;;;2.53;1.42;;;;;;;0.37;100.00;99858.78;10443041;28;20044;-66
2023/12/18 07:33:13;;;;;;;3.08;1.10;;;;;;;0.36;100.00;99857.13;10444397;28;20038;-66
2023/12/18 07:38:15;;;;;;;1.98;0.80;;;;;;;0.29;100.00;99858.03;10448964;28;20505;-66
2023/12/18 07:43:17;;;;;;;1.98;1.08;;;;;;;0.29;100.00;99868.00;10451410;28;20038;-67
2023/12/18 07:48:24;;;;;;;2.40;1.08;;;;;;;0.25;100.00;99866.84;10449391;28;20144;-67
2023/12/18 07:53:26;;;;;;;2.53;0.98;;;;;;;0.22;100.00;99867.31;10450934;28;20068;-66
2023/12/18 07:58:29;;;;;;;2.03;1.27;;;;;;;0.19;100.00;99863.22;10449927;28;20417;-66
2023/12/18 08:03:32;;;;;;;2.40;1.20;;;;;;;0.14;100.00;99867.63;10452901;28;20040;-66
2023/12/18 08:08:35;;;;;;;1.13;1.02;;;;;;;0.16;100.00;99870.91;10449557;28;20079;-65
2023/12/18 08:13:38;;;;;;;1.52;0.98;;;;;;;0.16;100.00;99877.13;10449119;28;20041;-65
2023/12/18 08:18:42;;;;;;;2.63;1.40;;;;;;;0.16;100.00;99879.84;10447672;28;20048;-65
2023/12/18 08:23:45;;;;;;;2.20;1.30;;;;;;;0.13;100.00;99876.78;10446393;28;20045;-65
2023/12/18 08:28:47;;;;;;;2.50;0.90;;;;;;;0.13;100.00;99903.75;10448768;28;20421;-67
2023/12/18 08:33:51;;;;;;;1.45;0.90;;;;;;;0.11;100.00;99911.25;10448598;28;20448;-67
2023/12/18 08:38:53;;;;;;;2.58;1.30;;;;;;;0.09;100.00;99900.72;10447632;28;20493;-66
2023/12/18 08:43:56;;;;;;;1.00;0.95;;;;;;;0.09;100.00;99899.88;10448323;28;20037;-66
2023/12/18 08:48:58;;;;;;;2.35;1.08;;;;;;;0.13;100.00;99887.56;10448433;28;20041;-65
2023/12/18 08:54:04;;;;;;;1.25;1.15;;;;;;;0.16;100.00;99890.63;10440829;28;20041;-66
2023/12/18 08:59:06;;;;;;;1.67;1.30;;;;;;;0.19;100.00;99884.78;10438873;28;20033;-66
2023/12/18 09:04:09;;;;;;;2.03;1.30;;;;;;;0.23;100.00;99883.25;10449588;28;20057;-67
2023/12/18 09:09:12;;;;;;;1.83;1.30;;;;;;;0.26;100.00;99880.09;10449064;28;20037;-64
2023/12/18 09:14:15;;;;;;;1.00;0.75;;;;;;;0.33;100.00;99879.97;10447508;28;20823;-67
2023/12/18 09:19:17;;;;;;;2.13;1.10;;;;;;;0.39;100.00;99865.56;10421876;28;20038;-66
2023/12/18 09:24:19;;;;;;;1.55;0.90;;;;;;;0.45;100.00;99856.53;10415172;28;20033;-67
2023/12/18 09:29:22;;;;;;;1.40;1.15;;;;;;;0.43;100.00;99838.94;10447346;28;20025;-66
2023/12/18 09:34:26;;;;;;;2.28;1.00;;;;;;;0.42;100.00;99850.78;10437394;28;20041;-67
2023/12/18 09:39:28;;;;;;;1.58;1.13;;;;;;;0.47;100.00;99849.03;10448503;28;20060;-66
2023/12/18 09:44:32;;;;;;;2.50;1.60;;;;;;;0.47;100.00;99850.91;10447370;28;20045;-67
2023/12/18 09:49:34;;;;;;;1.45;1.00;;;;;;;0.52;100.00;99853.72;10443734;28;20037;-67
2023/12/18 09:54:37;;;;;;;1.50;0.90;;;;;;;0.54;100.00;99878.63;10438422;28;20048;-66
2023/12/18 09:59:41;;;;;;;1.08;0.90;;;;;;;0.53;100.00;99876.97;10470832;28;20045;-67
2023/12/18 10:04:44;;;;;;;0.60;0.60;;;;;;;0.54;100.00;99886.72;10439611;28;20401;-67
2023/12/18 10:09:48;;;;;;;2.17;1.00;;;;;;;0.54;100.00;99879.44;10442644;28;20044;-65
2023/12/18 10:14:51;;;;;;;2.65;1.48;;;;;;;0.60;100.00;99869.56;10435867;28;20041;-66
2023/12/18 10:19:55;;;;;;;3.20;2.10;;;;;;;0.63;100.00;99885.28;10439740;28;20041;-68
2023/12/18 10:24:58;;;;;;;2.63;1.92;;;;;;;0.61;100.00;99884.72;10440437;28;20559;-65
2023/12/18 10:30:01;;;;;;;2.45;1.20;;;;;;;0.66;100.00;99884.81;10441945;28;20537;-67
2023/12/18 10:35:05;;;;;;;2.13;0.90;;;;;;;0.71;100.00;99866.06;10441454;28;20044;-67
2023/12/18 10:40:11;;;;;;;3.97;0.80;;;;;;;0.64;100.00;99859.94;10438237;28;20049;-67
2023/12/18 10:45:14;;;;;;;4.55;1.10;;;;;;;0.64;100.00;99851.84;10440192;28;20437;-67
2023/12/18 10:50:16;;;;;;;3.22;1.42;;;;;;;0.72;100.00;99851.50;10422694;28;20029;-67
2023/12/18 10:55:20;;;;;;;3.63;2.08;;;;;;;0.69;100.00;99853.81;10440581;28;20041;-66
2023/12/18 11:00:23;;;;;;;3.40;1.75;;;;;;;0.79;100.00;99871.09;10428215;28;20033;-64
2023/12/18 11:05:26;;;;;;;2.08;1.42;;;;;;;0.80;100.00;99859.22;10436807;28;20044;-63
2023/12/18 11:10:29;;;;;;;1.70;1.45;;;;;;;0.82;100.00;99865.19;10438156;28;20042;-64
2023/12/18 11:15:42;;;;;;;2.70;1.70;;;;;;;0.87;100.00;99870.75;10432856;28;20037;-64
2023/12/18 11:20:44;;;;;;;2.90;1.83;;;;;;;0.93;100.00;99868.16;10434557;28;20034;-65
2023/12/18 11:25:49;;;;;;;1.40;0.90;;;;;;;0.96;100.00;99873.06;10434650;28;20604;-65
2023/12/18 11:30:59;;;;;;;0.88;0.55;;;;;;;0.93;100.00;99881.66;10432967;28;20030;-65
2023/12/18 11:36:02;;;;;;;1.73;0.90;;;;;;;0.95;100.00;99890.34;10430891;28;20393;-65
2023/12/18 11:41:04;;;;;;;3.83;2.08;;;;;;;0.88;100.00;99880.47;10440039;28;20045;-65
2023/12/18 11:46:09;;;;;;;2.78;1.63;;;;;;;0.87;100.00;99889.66;10435384;28;20057;-65
2023/12/18 11:51:12;;;;;;;1.10;1.00;;;;;;;0.89;100.00;99887.53;10434040;28;20029;-64
2023/12/18 11:56:14;;;;;;;1.63;1.10;;;;;;;0.92;100.00;99886.22;10437265;28;20040;-64
2023/12/18 12:01:20;;;;;;;1.42;1.10;;;;;;;0.96;100.00;99894.69;10430800;28;20030;-63
2023/12/18 12:06:22;;;;;;;1.77;1.30;;;;;;;0.99;100.00;99894.19;10436239;28;20043;-65
2023/12/18 12:11:25;;;;;;;1.15;0.90;;;;;;;0.95;100.00;99901.97;10432415;28;20059;-64
2023/12/18 12:16:28;;;;;;;0.80;0.80;;;;;;;0.93;100.00;99908.66;10435986;28;20060;-63
2023/12/18 12:21:30;;;;;;;1.27;1.00;;;;;;;0.92;100.00;99909.72;10440355;28;20042;-63
2023/12/18 12:26:33;;;;;;;1.00;0.90;;;;;;;0.83;100.00;99912.75;10441313;28;20045;-62
2023/12/18 12:31:36;;;;;;;0.88;0.63;;;;;;;0.81;100.00;99922.97;10475529;28;20037;-63
2023/12/18 12:36:38;;;;;;;3.45;1.00;;;;;;;0.78;100.00;99912.66;10444368;28;20053;-63
2023/12/18 12:41:40;;;;;;;0.50;0.50;;;;;;;0.76;100.00;99922.03;10409803;28;20045;-63
2023/12/18 12:46:43;;;;;;;1.27;0.73;;;;;;;0.70;100.00;99917.59;10443507;28;20049;-62
2023/12/18 12:51:47;;;;;;;3.45;0.80;;;;;;;0.73;100.00;99928.75;10443579;28;20041;-63
2023/12/18 12:56:50;;;;;;;1.90;0.93;;;;;;;0.68;100.00;99930.47;10444490;28;20532;-64
2023/12/18 13:01:52;;;;;;;1.27;0.65;;;;;;;0.64;100.00;99924.72;10438001;28;20056;-63
2023/12/18 13:06:54;;;;;;;1.67;0.90;;;;;;;0.60;100.00;99934.34;10441573;28;20041;-63
2023/12/18 13:11:57;;;;;;;0.70;0.60;;;;;;;0.58;100.00;99942.69;10444150;28;20524;-64
2023/12/18 13:17:00;;;;;;;3.78;1.17;;;;;;;0.57;100.00;99929.44;10443249;28;20056;-64
2023/12/18 13:22:03;;;;;;;2.78;1.02;;;;;;;0.55;100.00;99923.44;10440223;28;20064;-64
2023/12/18 13:27:05;;;;;;;1.90;0.90;;;;;;;0.55;100.00;99918.88;10443564;28;20444;-64
2023/12/18 13:32:08;;;;;;;3.65;1.55;;;;;;;0.55;100.00;99928.84;10427511;28;20521;-63
2023/12/18 13:37:13;;;;;;;1.42;0.70;;;;;;;0.58;100.00;99950.78;10440982;28;20033;-64
2023/12/18 13:42:16;;;;;;;1.70;1.27;;;;;;;0.57;100.00;99946.44;10436295;28;20041;-63
2023/12/18 13:47:18;;;;;;;1.08;1.00;;;;;;;0.58;100.00;99944.56;10440297;28;20068;-63
2023/12/18 13:52:21;;;;;;;1.85;1.10;;;;;;;0.55;100.00;99937.75;10441229;28;20033;-63
2023/12/18 13:57:25;;;;;;;1.88;1.17;;;;;;;0.56;100.00;99934.00;10435798;28;20044;-63
2023/12/18 14:02:32;;;;;;;1.27;0.80;;;;;;;0.56;100.00;99927.78;10440438;28;20034;-63
2023/12/18 14:07:36;;;;;;;2.67;1.00;;;;;;;0.55;100.00;99936.94;10430521;28;20409;-63
2023/12/18 14:12:38;;;;;;;1.30;0.90;;;;;;;0.52;100.00;99929.28;10442382;28;20806;-63
2023/12/18 14:17:41;;;;;;;2.60;1.15;;;;;;;0.54;100.00;99924.50;10432764;28;20040;-62
2023/12/18 14:22:44;;;;;;;2.67;1.30;;;;;;;0.51;100.00;99919.53;10444382;28;20040;-63
2023/12/18 14:27:47;;;;;;;1.98;1.20;;;;;;;0.49;100.00;99924.34;10434753;28;20030;-63
2023/12/18 14:32:49;;;;;;;1.80;1.20;;;;;;;0.45;100.00;99928.59;10431497;28;20033;-63
2023/12/18 14:37:53;;;;;;;3.22;1.60;;;;;;;0.42;100.00;99932.56;10427392;28;20074;-67
2023/12/18 14:42:57;;;;;;;2.67;1.52;;;;;;;0.42;100.00;99937.16;10430482;28;20048;-62
2023/12/18 14:48:00;;;;;;;2.25;1.80;;;;;;;0.38;100.00;99938.69;10438222;28;20053;-62
2023/12/18 14:53:03;;;;;;;3.38;1.77;;;;;;;0.36;100.00;99948.88;10436811;28;20037;-62
2023/12/18 14:58:07;;;;;;;3.13;1.52;;;;;;;0.33;100.00;99947.44;10431501;28;20038;-61
2023/12/18 15:03:10;;;;;;;2.42;1.60;;;;;;;0.33;100.00;99960.09;10428645;28;20045;-61
2023/12/18 15:08:13;;;;;;;3.15;1.80;;;;;;;0.30;100.00;99946.03;10434673;28;20037;-61
2023/12/18 15:13:16;;;;;;;4.30;2.10;;;;;;;0.28;100.00;99934.66;10435728;28;20048;-61
2023/12/18 15:18:18;;;;;;;2.85;1.67;;;;;;;0.28;100.00;99936.53;10433162;28;20505;-62
2023/12/18 15:23:21;;;;;;;2.97;1.90;;;;;;;0.25;100.00;99950.47;10468349;28;20033;-61
2023/12/18 15:28:23;;;;;;;3.80;2.15;;;;;;;0.24;100.00;99938.88;10471134;28;20037;-67
2023/12/18 15:33:25;;;;;;;2.60;1.63;;;;;;;0.25;100.00;99955.88;10438406;28;20453;-66
2023/12/18 15:38:28;;;;;;;3.67;1.90;;;;;;;0.23;100.00;99969.59;10441000;28;20041;-66
2023/12/18 15:43:31;;;;;;;4.18;2.42;;;;;;;0.21;100.00;99974.41;10452059;28;20052;-63
2023/12/18 15:48:33;;;;;;;4.13;2.47;;;;;;;0.19;100.00;99971.13;10470760;28;20620;-64
2023/12/18 15:53:37;;;;;;;2.38;2.13;;;;;;;0.16;100.00;99976.94;10434214;28;20048;-66
2023/12/18 15:58:39;;;;;;;3.83;2.70;;;;;;;0.17;100.00;99980.47;10439469;28;20030;-66
2023/12/18 16:03:42;;;;;;;2.33;2.10;;;;;;;0.10;100.00;99985.97;10455919;28;20048;-62
2023/12/18 16:08:44;;;;;;;2.00;1.60;;;;;;;0.12;100.00;99986.56;10452794;28;20043;-64
2023/12/18 16:13:47;;;;;;;2.20;1.73;;;;;;;0.17;100.00;99993.97;10445938;28;20029;-66
2023/12/18 16:18:49;;;;;;;2.45;1.60;;;;;;;0.13;100.00;99990.09;10446442;28;20041;-65
2023/12/18 16:23:52;;;;;;;1.88;1.75;;;;;;;0.09;100.00;100007.78;10445131;28;20847;-64
2023/12/18 16:28:54;;;;;;;2.63;1.65;;;;;;;-0.02;100.00;100006.66;10441808;28;20029;-63
2023/12/18 16:33:56;;;;;;;1.40;1.10;;;;;;;-0.12;100.00;100007.22;10445781;28;20033;-64
2023/12/18 16:38:59;;;;;;;2.08;1.40;;;;;;;-0.18;100.00;100015.38;10443046;28;20068;-64
2023/12/18 16:44:01;;;;;;;1.10;1.00;;;;;;;-0.25;100.00;100020.84;10435423;28;21324;-63
2023/12/18 16:49:04;;;;;;;1.67;1.15;;;;;;;-0.28;100.00;100025.88;10444182;28;20030;-63
2023/12/18 16:54:07;;;;;;;1.13;1.10;;;;;;;-0.34;100.00;100025.75;10433784;28;20053;-65
2023/12/18 16:59:09;;;;;;;1.38;1.25;;;;;;;-0.37;100.00;100019.97;10431422;28;20037;-66
2023/12/18 17:04:12;;;;;;;1.10;1.00;;;;;;;-0.37;100.00;100012.69;10444913;28;20049;-65
2023/12/18 17:09:15;;;;;;;1.08;1.00;;;;;;;-0.37;100.00;100018.09;10441856;28;20444;-67
2023/12/18 17:14:18;;;;;;;1.95;1.63;;;;;;;-0.35;100.00;100016.00;10442594;28;20052;-64
2023/12/18 17:19:21;;;;;;;2.05;1.90;;;;;;;-0.33;100.00;100008.53;10439854;28;20128;-65
2023/12/18 17:24:23;;;;;;;2.08;1.23;;;;;;;-0.34;100.00;100001.47;10441415;28;20536;-66
2023/12/18 17:29:25;;;;;;;1.40;1.20;;;;;;;-0.32;100.00;100014.72;10439672;28;20038;-67
2023/12/18 17:34:29;;;;;;;1.85;1.50;;;;;;;-0.29;100.00;100010.75;10439036;28;20037;-67
2023/12/18 17:39:31;;;;;;;1.50;1.40;;;;;;;-0.31;100.00;100006.41;10445645;28;20520;-67
2023/12/18 17:44:33;;;;;;;1.15;1.15;;;;;;;-0.34;100.00;100006.88;10437127;28;20049;-67
2023/12/18 17:49:40;;;;;;;1.55;1.17;;;;;;;-0.32;100.00;100007.47;10446496;28;20048;-67
2023/12/18 17:54:42;;;;;;;1.90;1.65;;;;;;;-0.29;100.00;100005.38;10444230;28;20040;-65
2023/12/18 17:59:47;;;;;;;2.17;1.85;;;;;;;-0.30;100.00;99999.16;10443856;28;20033;-64
2023/12/18 18:04:49;;;;;;;1.55;1.45;;;;;;;-0.26;100.00;99992.25;10441976;28;20041;-64
2023/12/18 18:09:52;;;;;;;1.40;1.30;;;;;;;-0.26;100.00;99999.53;10443034;28;20445;-65
2023/12/18 18:14:57;;;;;;;1.65;1.40;;;;;;;-0.26;100.00;99994.94;10435703;28;20505;-67
2023/12/18 18:20:00;;;;;;;2.00;1.80;;;;;;;-0.23;100.00;99986.41;10441246;28;20041;-66
2023/12/18 18:25:03;;;;;;;3.15;1.60;;;;;;;-0.24;100.00;99994.72;10437748;28;20076;-64
2023/12/18 18:30:06;;;;;;;2.15;1.65;;;;;;;-0.20;100.00;99985.13;10434760;28;20037;-66
2023/12/18 18:35:09;;;;;;;1.83;1.67;;;;;;;-0.21;100.00;99983.47;10438211;28;20041;-64
2023/12/18 18:40:13;;;;;;;2.00;1.80;;;;;;;-0.15;100.00;99974.50;10441540;28;20045;-66
2023/12/18 18:45:16;;;;;;;1.92;1.80;;;;;;;-0.14;100.00;99981.53;10437083;28;20061;-66
2023/12/18 18:50:18;;;;;;;1.73;1.63;;;;;;;-0.12;100.00;99982.13;10436641;28;20032;-65
2023/12/18 18:55:20;;;;;;;1.75;1.60;;;;;;;-0.12;100.00;99984.81;10437203;28;20033;-64
2023/12/18 19:00:22;;;;;;;2.17;1.60;;;;;;;-0.11;100.00;99970.28;10430493;28;20029;-65
2023/12/18 19:05:25;;;;;;;3.17;1.90;;;;;;;-0.08;100.00;99981.44;10430496;28;20033;-66
2023/12/18 19:10:27;;;;;;;2.85;1.75;;;;;;;-0.02;100.00;99977.00;10431136;28;20033;-64
2023/12/18 19:15:30;;;;;;;2.13;1.90;;;;;;;-0.02;100.00;99971.59;10436057;28;20056;-64
2023/12/18 19:20:34;;;;;;;2.20;2.00;;;;;;;-0.03;100.00;99983.44;10438750;28;20048;-64
2023/12/18 19:25:38;;;;;;;1.88;1.75;;;;;;;-0.02;100.00;99972.44;10438096;28;20045;-66
2023/12/18 19:30:41;;;;;;;2.20;1.50;;;;;;;0.02;100.00;99978.22;10466184;28;20128;-64
2023/12/18 19:35:44;;;;;;;1.60;1.50;;;;;;;0.04;100.00;99984.19;10440080;28;20040;-65
2023/12/18 19:40:47;;;;;;;1.35;1.20;;;;;;;0.04;100.00;99983.38;10428747;28;20034;-66
2023/12/18 19:45:49;;;;;;;1.90;1.33;;;;;;;0.10;100.00;99977.06;10391490;28;1291660;-66
2023/12/18 19:50:51;;;;;;;2.30;1.30;;;;;;;0.10;100.00;99982.44;10435593;28;20198;-65
2023/12/18 19:55:54;;;;;;;1.70;1.60;;;;;;;0.12;100.00;99978.47;10436942;28;20034;-65
2023/12/18 20:00:56;;;;;;;2.42;1.77;;;;;;;1.88;100.00;99971.22;10455556;28;20433;-64
2023/12/18 20:05:58;;;;;;;2.05;1.85;;;;;;;0.55;100.00;99975.56;10433097;28;20033;-64
2023/12/18 20:11:01;;;;;;;1.90;1.80;;;;;;;0.34;100.00;99988.75;10414645;28;20033;-65
2023/12/18 20:16:03;;;;;;;2.53;2.00;;;;;;;0.29;100.00;99992.97;10437714;28;20478;-64
2023/12/18 20:21:06;;;;;;;2.30;2.10;;;;;;;0.30;100.00;99983.81;10434890;28;20033;-64
2023/12/18 20:26:08;;;;;;;2.38;2.05;;;;;;;0.29;100.00;99984.88;10437584;28;20045;-64
2023/12/18 20:31:11;;;;;;;2.70;2.50;;;;;;;0.30;100.00;99983.81;10436090;28;20029;-64
2023/12/18 20:36:13;;;;;;;2.53;2.30;;;;;;;0.32;100.00;99996.25;10435871;28;20033;-64
2023/12/18 20:41:16;;;;;;;2.67;2.33;;;;;;;0.34;100.00;100004.94;10437658;28;20043;-66
2023/12/18 20:46:19;;;;;;;3.88;2.35;;;;;;;0.37;100.00;99996.41;10437590;28;20041;-66
2023/12/18 20:51:22;;;;;;;2.25;2.05;;;;;;;0.42;100.00;99981.16;10437514;28;20034;-67
2023/12/18 20:56:25;;;;;;;1.90;1.77;;;;;;;0.45;100.00;99979.88;10433657;28;20038;-67
2023/12/18 21:01:27;;;;;;;2.38;1.80;;;;;;;0.52;100.00;99967.06;10432234;28;20037;-67
2023/12/18 21:06:29;;;;;;;2.22;1.83;;;;;;;0.50;100.00;99961.09;10443799;28;20044;-65
2023/12/18 21:11:33;;;;;;;2.38;1.67;;;;;;;0.52;100.00;99958.97;10441755;28;20040;-67
2023/12/18 21:16:36;;;;;;;1.73;1.50;;;;;;;0.57;100.00;99941.06;10441877;28;20563;-66
2023/12/18 21:21:42;;;;;;;4.80;1.63;;;;;;;0.59;100.00;99938.13;10436696;28;20033;-66
2023/12/18 21:26:45;;;;;;;1.77;1.20;;;;;;;0.60;100.00;99929.78;10438784;28;20053;-66
2023/12/18 21:31:48;;;;;;;1.42;1.33;;;;;;;0.59;100.00;99935.41;10441269;28;20037;-63
2023/12/18 21:36:53;;;;;;;4.20;1.67;;;;;;;1.07;100.00;99907.34;10439129;28;20406;-63
2023/12/18 21:41:56;;;;;;;4.13;1.08;;;;;;;0.96;100.00;99919.81;10435292;28;20057;-63
2023/12/18 21:46:58;;;;;;;1.48;1.15;;;;;;;0.83;100.00;99911.94;10440344;28;20056;-64
2023/12/18 21:52:01;;;;;;;1.10;1.00;;;;;;;0.80;100.00;99913.22;10433103;28;20426;-64
2023/12/18 21:57:04;;;;;;;1.70;0.98;;;;;;;0.86;100.00;99912.28;10434797;28;20044;-63
2023/12/18 22:02:10;;;;;;;1.40;1.30;;;;;;;0.96;100.00;99914.41;10477572;28;20044;-63
2023/12/18 22:07:12;;;;;;;1.73;1.17;;;;;;;0.70;100.00;99899.50;10439173;28;20423;-63
2023/12/18 22:12:15;;;;;;;0.90;0.90;;;;;;;0.64;100.00;99910.41;10442123;28;20038;-63
2023/12/18 22:17:18;;;;;;;2.88;1.35;;;;;;;0.61;100.00;99892.81;10441975;28;20390;-64
2023/12/18 22:22:20;;;;;;;1.83;1.40;;;;;;;0.63;100.00;99884.47;10432945;28;20089;-63
2023/12/18 22:27:22;;;;;;;3.10;1.50;;;;;;;0.60;100.00;99891.97;10440891;28;20034;-64
2023/12/18 22:32:25;;;;;;;2.83;1.60;;;;;;;0.60;100.00;99891.16;10431406;28;20049;-63
2023/12/18 22:37:27;;;;;;;2.20;1.80;;;;;;;0.62;100.00;99891.75;10429816;28;20456;-63
2023/12/18 22:42:29;;;;;;;2.35;1.52;;;;;;;0.61;100.00;99882.00;10435356;28;20094;-63
2023/12/18 22:47:32;;;;;;;1.52;1.42;;;;;;;0.61;100.00;99871.22;10436146;28;20049;-63
2023/12/18 22:52:34;;;;;;;1.45;1.35;;;;;;;0.62;100.00;99872.84;10442768;28;20048;-63
2023/12/18 22:57:36;;;;;;;1.60;1.50;;;;;;;0.56;100.00;99853.03;10433858;28;20041;-62
2023/12/18 23:02:39;;;;;;;2.85;1.70;;;;;;;0.62;100.00;99836.94;10439337;28;20041;-63
2023/12/18 23:07:42;;;;;;;2.22;1.80;;;;;;;0.55;100.00;99837.88;10439858;28;20057;-63
2023/12/18 23:12:44;;;;;;;2.10;1.88;;;;;;;0.53;100.00;99828.38;10441289;28;20033;-63
2023/12/18 23:17:47;;;;;;;2.28;2.00;;;;;;;0.47;100.00;99829.31;10436884;28;20044;-63
2023/12/18 23:22:51;;;;;;;2.25;2.00;;;;;;;0.43;100.00;99811.94;10424309;28;20049;-63
2023/12/18 23:27:54;;;;;;;1.80;1.60;;;;;;;0.43;100.00;99787.66;10436543;28;20512;-63